createdAt,value
2022-08-26T00:00:35.321Z,22.60
2022-08-26T00:03:39.244Z,22.50
2022-08-26T00:06:42.630Z,22.60
2022-08-26T00:09:49.962Z,22.60
2022-08-26T00:12:52.882Z,22.50
2022-08-26T00:15:54.932Z,22.50
2022-08-26T00:18:59.177Z,22.50
2022-08-26T00:22:00.885Z,22.50
2022-08-26T00:25:03.341Z,22.40
2022-08-26T00:28:06.756Z,22.40
2022-08-26T00:31:12.047Z,22.40
2022-08-26T00:34:15.234Z,22.30
2022-08-26T00:37:17.172Z,22.30
2022-08-26T00:40:32.892Z,22.30
2022-08-26T00:43:47.324Z,22.30
2022-08-26T00:46:53.941Z,22.30
2022-08-26T00:49:56.648Z,22.30
2022-08-26T00:53:01.588Z,22.20
2022-08-26T00:56:31.709Z,22.20
2022-08-26T00:59:33.558Z,22.20
2022-08-26T01:02:35.963Z,22.10
2022-08-26T01:05:41.924Z,22.20
2022-08-26T01:08:44.655Z,22.10
2022-08-26T01:11:49.432Z,22.10
2022-08-26T01:14:51.645Z,22.10
2022-08-26T01:17:53.983Z,22.10
2022-08-26T01:20:57.787Z,22.20
2022-08-26T01:23:59.982Z,22.00
2022-08-26T01:27:05.116Z,22.00
2022-08-26T01:30:07.499Z,22.00
2022-08-26T01:33:15.816Z,22.00
2022-08-26T01:36:18.056Z,21.90
2022-08-26T01:39:22.497Z,21.90
2022-08-26T01:42:25.881Z,21.90
2022-08-26T01:45:30.602Z,21.80
2022-08-26T01:48:35.273Z,21.80
2022-08-26T01:51:40.260Z,21.80
2022-08-26T01:54:42.522Z,21.80
2022-08-26T01:57:51.992Z,21.80
2022-08-26T02:01:01.456Z,21.70
2022-08-26T02:04:27.127Z,21.70
2022-08-26T02:07:29.334Z,21.80
2022-08-26T02:10:31.143Z,21.70
2022-08-26T02:13:37.723Z,21.70
2022-08-26T02:16:43.278Z,21.70
2022-08-26T02:19:48.481Z,21.70
2022-08-26T02:22:50.179Z,21.70
2022-08-26T02:26:08.404Z,21.70
2022-08-26T02:29:35.477Z,21.70
2022-08-26T02:32:37.721Z,21.70
2022-08-26T02:35:41.997Z,21.60
2022-08-26T02:38:43.667Z,21.70
2022-08-26T02:41:47.873Z,21.60
2022-08-26T02:44:50.129Z,21.60
2022-08-26T02:47:52.540Z,21.60
2022-08-26T02:50:55.082Z,21.60
2022-08-26T02:53:57.140Z,21.60
2022-08-26T02:56:59.182Z,21.70
2022-08-26T03:00:01.926Z,21.70
2022-08-26T03:03:05.081Z,21.70
2022-08-26T03:06:06.880Z,21.60
2022-08-26T03:09:10.376Z,21.60
2022-08-26T03:12:20.354Z,21.60
2022-08-26T03:15:22.071Z,21.60
2022-08-26T03:18:23.732Z,21.60
2022-08-26T03:21:25.634Z,21.60
2022-08-26T03:24:27.311Z,21.60
2022-08-26T03:27:29.030Z,21.60
2022-08-26T03:30:45.449Z,21.50
2022-08-26T03:33:48.034Z,21.50
2022-08-26T03:36:51.236Z,21.50
2022-08-26T03:39:52.987Z,21.50
2022-08-26T03:42:55.515Z,21.40
2022-08-26T03:45:57.205Z,21.40
2022-08-26T03:49:00.307Z,21.40
2022-08-26T03:52:03.938Z,21.40
2022-08-26T03:55:07.568Z,21.40
2022-08-26T03:58:09.217Z,21.50
2022-08-26T04:01:12.457Z,21.50
2022-08-26T04:04:15.665Z,21.40
2022-08-26T04:07:17.949Z,21.40
2022-08-26T04:10:29.019Z,21.40
2022-08-26T04:13:31.755Z,21.50
2022-08-26T04:16:34.099Z,21.40
2022-08-26T04:19:36.808Z,21.40
2022-08-26T04:22:38.479Z,21.30
2022-08-26T04:25:40.611Z,21.40
2022-08-26T04:28:42.297Z,21.40
2022-08-26T04:31:44.380Z,21.30
2022-08-26T04:34:46.016Z,21.30
2022-08-26T04:37:49.316Z,21.40
2022-08-26T04:40:50.973Z,21.30
2022-08-26T04:43:53.440Z,21.40
2022-08-26T04:46:56.464Z,21.30
2022-08-26T04:49:58.184Z,21.30
2022-08-26T04:53:00.162Z,21.40
2022-08-26T04:56:03.205Z,21.40
2022-08-26T04:59:16.801Z,21.30
2022-08-26T05:02:19.308Z,21.40
2022-08-26T05:05:21.051Z,21.50
2022-08-26T05:08:24.216Z,21.50
2022-08-26T05:11:26.542Z,21.50
2022-08-26T05:14:28.443Z,21.50
2022-08-26T05:17:30.184Z,21.60
2022-08-26T05:20:35.099Z,21.70
2022-08-26T05:23:37.038Z,21.70
2022-08-26T05:26:39.126Z,21.70
2022-08-26T05:29:41.195Z,21.70
2022-08-26T05:32:43.378Z,21.80
2022-08-26T05:35:46.013Z,21.80
2022-08-26T05:38:48.663Z,21.90
2022-08-26T05:41:50.693Z,22.00
2022-08-26T05:44:54.111Z,22.00
2022-08-26T05:47:57.904Z,22.10
2022-08-26T05:51:04.908Z,22.30
2022-08-26T05:54:10.503Z,22.40
2022-08-26T05:57:13.760Z,22.60
2022-08-26T06:00:18.407Z,22.80
2022-08-26T06:03:20.066Z,23.00
2022-08-26T06:06:27.581Z,23.10
2022-08-26T06:09:31.419Z,23.30
2022-08-26T06:12:34.298Z,23.50
2022-08-26T06:15:42.007Z,23.80
2022-08-26T06:18:45.932Z,24.20
2022-08-26T06:21:54.097Z,24.50
2022-08-26T06:25:15.076Z,24.90
2022-08-26T06:28:17.265Z,25.20
2022-08-26T06:31:19.761Z,25.20
2022-08-26T06:34:23.210Z,25.20
2022-08-26T06:37:28.389Z,25.50
2022-08-26T06:40:31.116Z,25.80
2022-08-26T06:43:33.144Z,26.20
2022-08-26T06:46:35.317Z,26.40
2022-08-26T06:49:37.256Z,26.60
2022-08-26T06:52:42.478Z,26.70
2022-08-26T06:55:46.119Z,26.80
2022-08-26T06:58:48.360Z,27.00
2022-08-26T07:01:50.453Z,27.30
2022-08-26T07:04:52.522Z,27.50
2022-08-26T07:07:58.657Z,27.70
2022-08-26T07:11:25.021Z,27.90
2022-08-26T07:14:27.457Z,28.20
2022-08-26T07:17:29.338Z,28.50
2022-08-26T07:20:31.409Z,28.70
2022-08-26T07:23:34.537Z,28.80
2022-08-26T07:26:36.226Z,28.90
2022-08-26T07:29:41.743Z,29.00
2022-08-26T07:32:43.454Z,29.10
2022-08-26T07:35:45.446Z,29.20
2022-08-26T07:38:48.200Z,29.40
2022-08-26T07:41:51.033Z,29.70
2022-08-26T07:44:52.756Z,30.10
2022-08-26T07:47:54.736Z,30.20
2022-08-26T07:50:56.815Z,30.20
2022-08-26T07:53:59.589Z,30.20
2022-08-26T07:57:01.538Z,30.40
2022-08-26T08:00:10.039Z,30.50
2022-08-26T08:03:12.161Z,30.60
2022-08-26T08:06:15.813Z,30.70
2022-08-26T08:09:24.098Z,30.80
2022-08-26T08:12:26.240Z,31.10
2022-08-26T08:15:43.452Z,31.20
2022-08-26T08:18:45.692Z,31.40
2022-08-26T08:21:47.964Z,31.50
2022-08-26T08:24:53.070Z,31.50
2022-08-26T08:27:57.036Z,31.60
2022-08-26T08:30:59.069Z,31.30
2022-08-26T08:37:10.845Z,32.20
2022-08-26T08:40:18.087Z,32.20
2022-08-26T08:43:47.319Z,32.20
2022-08-26T08:46:53.019Z,32.20
2022-08-26T08:49:58.630Z,32.40
2022-08-26T08:53:11.332Z,32.40
2022-08-26T08:56:35.845Z,32.40
2022-08-26T08:59:53.217Z,32.50
2022-08-26T09:03:09.916Z,32.50
2022-08-26T09:06:17.364Z,32.40
2022-08-26T09:09:43.827Z,32.40
2022-08-26T09:12:48.103Z,32.40
2022-08-26T09:16:02.148Z,32.60
2022-08-26T09:19:25.620Z,32.60
2022-08-26T09:22:33.197Z,32.60
2022-08-26T09:26:04.911Z,32.30
2022-08-26T09:32:25.384Z,32.40
2022-08-26T09:35:34.000Z,32.50
2022-08-26T09:38:35.909Z,32.50
2022-08-26T09:41:37.950Z,32.60
2022-08-26T09:45:02.883Z,32.70
2022-08-26T09:48:06.477Z,32.60
2022-08-26T09:51:23.366Z,32.60
2022-08-26T09:54:30.482Z,32.70
2022-08-26T09:57:36.452Z,32.60
2022-08-26T10:00:55.630Z,32.60
2022-08-26T10:04:14.009Z,32.60
2022-08-26T10:07:42.090Z,32.40
2022-08-26T10:10:45.306Z,32.10
2022-08-26T10:14:04.211Z,32.10
2022-08-26T10:17:12.022Z,32.20
2022-08-26T10:20:26.407Z,32.20
2022-08-26T10:23:31.052Z,32.30
2022-08-26T10:26:53.285Z,32.40
2022-08-26T10:30:06.414Z,32.40
2022-08-26T10:33:12.297Z,32.50
2022-08-26T10:36:47.183Z,32.40
2022-08-26T10:40:12.810Z,32.30
2022-08-26T10:43:21.416Z,32.20
2022-08-26T10:46:28.402Z,32.10
2022-08-26T10:49:30.156Z,32.00
2022-08-26T10:53:04.975Z,31.90
2022-08-26T10:56:18.710Z,31.90
2022-08-26T10:59:30.329Z,31.70
2022-08-26T11:02:48.817Z,31.70
2022-08-26T11:06:24.274Z,31.50
2022-08-26T11:09:46.828Z,31.30
2022-08-26T11:12:49.913Z,31.30
2022-08-26T11:15:54.541Z,31.50
2022-08-26T11:18:56.264Z,31.50
2022-08-26T11:22:11.670Z,31.70
2022-08-26T11:25:15.928Z,31.70
2022-08-26T11:28:34.589Z,31.50
2022-08-26T11:31:53.483Z,31.30
2022-08-26T11:34:59.120Z,31.30
2022-08-26T11:38:29.698Z,31.40
2022-08-26T11:41:34.154Z,31.50
2022-08-26T11:44:40.614Z,31.40
2022-08-26T11:47:42.530Z,31.30
2022-08-26T11:51:19.187Z,31.40
2022-08-26T11:54:30.701Z,31.60
2022-08-26T11:57:46.932Z,31.50
2022-08-26T12:00:54.366Z,31.40
2022-08-26T12:04:01.285Z,31.20
2022-08-26T12:07:04.745Z,31.10
2022-08-26T12:10:24.193Z,31.00
2022-08-26T12:13:31.262Z,31.00
2022-08-26T12:16:38.735Z,31.00
2022-08-26T12:19:40.629Z,31.00
2022-08-26T12:22:43.691Z,31.00
2022-08-26T12:25:52.072Z,31.00
2022-08-26T12:28:57.528Z,31.00
2022-08-26T12:32:18.219Z,31.00
2022-08-26T12:35:21.359Z,30.90
2022-08-26T12:38:26.764Z,31.00
2022-08-26T12:41:58.196Z,31.00
2022-08-26T12:45:01.615Z,31.00
2022-08-26T12:48:09.893Z,31.00
2022-08-26T12:51:34.717Z,31.00
2022-08-26T12:54:57.052Z,30.90
2022-08-26T12:58:18.513Z,30.80
2022-08-26T13:01:22.368Z,30.90
2022-08-26T13:04:35.488Z,30.90
2022-08-26T13:07:39.661Z,30.90
2022-08-26T13:11:00.394Z,30.90
2022-08-26T13:14:10.095Z,30.90
2022-08-26T13:17:11.791Z,31.00
2022-08-26T13:20:13.443Z,31.00
2022-08-26T13:23:15.546Z,31.00
2022-08-26T13:26:18.115Z,31.00
2022-08-26T13:29:19.982Z,31.00
2022-08-26T13:32:24.765Z,30.90
2022-08-26T13:35:31.484Z,30.80
2022-08-26T13:38:34.078Z,30.80
2022-08-26T13:41:36.636Z,30.70
2022-08-26T13:44:39.045Z,30.60
2022-08-26T13:47:40.708Z,30.50
2022-08-26T13:51:33.584Z,30.50
2022-08-26T13:54:35.471Z,30.50
2022-08-26T13:57:37.172Z,30.50
2022-08-26T14:00:40.098Z,30.40
2022-08-26T14:03:42.297Z,30.20
2022-08-26T14:06:44.535Z,30.00
2022-08-26T14:09:47.113Z,29.70
2022-08-26T14:12:48.779Z,29.30
2022-08-26T14:15:51.171Z,29.10
2022-08-26T14:18:53.901Z,28.70
2022-08-26T14:21:56.528Z,28.60
2022-08-26T14:24:58.344Z,28.40
2022-08-26T14:28:00.826Z,28.30
2022-08-26T14:31:03.608Z,28.00
2022-08-26T14:34:07.837Z,28.00
2022-08-26T14:37:13.514Z,28.00
2022-08-26T14:40:18.693Z,28.00
2022-08-26T14:43:20.517Z,28.00
2022-08-26T14:46:22.291Z,28.00
2022-08-26T14:49:25.138Z,28.00
2022-08-26T14:52:26.860Z,28.00
2022-08-26T14:55:30.623Z,27.90
2022-08-26T14:58:35.134Z,27.80
2022-08-26T15:01:37.073Z,27.80
2022-08-26T15:04:40.400Z,27.80
2022-08-26T15:07:44.928Z,27.90
2022-08-26T15:10:46.572Z,27.90
2022-08-26T15:13:50.490Z,27.90
2022-08-26T15:17:01.514Z,27.90
2022-08-26T15:20:05.286Z,27.80
2022-08-26T15:23:07.348Z,27.90
2022-08-26T15:26:11.534Z,28.00
2022-08-26T15:29:13.637Z,28.00
2022-08-26T15:32:15.344Z,28.00
2022-08-26T15:35:17.093Z,27.60
2022-08-26T15:38:18.784Z,27.30
2022-08-26T15:41:20.601Z,27.20
2022-08-26T15:44:22.984Z,27.10
2022-08-26T15:47:24.864Z,27.00
2022-08-26T15:50:26.558Z,26.80
2022-08-26T15:53:31.716Z,26.80
2022-08-26T15:56:35.356Z,26.80
2022-08-26T15:59:37.088Z,26.80
2022-08-26T16:02:38.743Z,26.70
2022-08-26T16:05:43.430Z,26.70
2022-08-26T16:08:45.742Z,26.70
2022-08-26T16:12:05.893Z,26.70
2022-08-26T16:15:08.368Z,26.70
2022-08-26T16:18:10.311Z,26.60
2022-08-26T16:21:20.921Z,26.70
2022-08-26T16:24:27.147Z,26.60
2022-08-26T16:27:34.099Z,26.60
2022-08-26T16:30:35.832Z,26.80
2022-08-26T16:33:37.850Z,26.70
2022-08-26T16:36:40.248Z,26.70
2022-08-26T16:39:45.121Z,26.70
2022-08-26T16:42:46.989Z,26.70
2022-08-26T16:45:50.740Z,26.70
2022-08-26T16:48:53.951Z,26.70
2022-08-26T16:51:55.704Z,26.60
2022-08-26T16:55:00.293Z,26.60
2022-08-26T16:58:02.405Z,26.60
2022-08-26T17:01:04.059Z,26.60
2022-08-26T17:04:05.760Z,26.60
2022-08-26T17:07:07.520Z,26.50
2022-08-26T17:10:09.359Z,26.40
2022-08-26T17:13:11.166Z,26.40
2022-08-26T17:16:17.802Z,26.40
2022-08-26T17:19:20.740Z,26.40
2022-08-26T17:22:22.426Z,26.40
2022-08-26T17:25:25.729Z,26.50
2022-08-26T17:28:27.573Z,26.40
2022-08-26T17:31:29.368Z,26.20
2022-08-26T17:34:31.208Z,26.40
2022-08-26T17:37:39.153Z,26.10
2022-08-26T17:40:40.833Z,26.00
2022-08-26T17:43:45.649Z,26.00
2022-08-26T17:46:47.473Z,25.90
2022-08-26T17:49:49.808Z,25.90
2022-08-26T17:52:51.640Z,25.80
2022-08-26T17:55:53.309Z,25.80
2022-08-26T17:58:58.069Z,25.70
2022-08-26T18:02:05.153Z,25.70
2022-08-26T18:05:08.251Z,25.70
2022-08-26T18:08:10.212Z,25.60
2022-08-26T18:11:18.119Z,25.50
2022-08-26T18:14:19.816Z,25.40
2022-08-26T18:17:21.474Z,25.40
2022-08-26T18:20:23.168Z,25.40
2022-08-26T18:23:25.058Z,25.30
2022-08-26T18:26:39.525Z,25.30
2022-08-26T18:29:45.550Z,25.30
2022-08-26T18:32:48.729Z,25.10
2022-08-26T18:35:50.377Z,25.10
2022-08-26T18:38:53.176Z,25.10
